sensor_id;sensor_type;location;lat;lon;timestamp;P1;durP1;ratioP1;P2;durP2;ratioP2
7160;SDS011;3622;53.576;9.978;2023-05-07T00:01:43;15.17;;;8.93;;
7160;SDS011;3622;53.576;9.978;2023-05-07T00:04:09;10.53;;;7.27;;
7160;SDS011;3622;53.576;9.978;2023-05-07T00:06:35;12.20;;;8.50;;
7160;SDS011;3622;53.576;9.978;2023-05-07T00:09:02;12.10;;;8.60;;
7160;SDS011;3622;53.576;9.978;2023-05-07T00:11:29;14.00;;;8.80;;
7160;SDS011;3622;53.576;9.978;2023-05-07T00:13:55;13.23;;;9.00;;
7160;SDS011;3622;53.576;9.978;2023-05-07T00:16:21;14.37;;;9.47;;
7160;SDS011;3622;53.576;9.978;2023-05-07T00:18:47;12.47;;;8.33;;
7160;SDS011;3622;53.576;9.978;2023-05-07T00:21:13;17.57;;;9.47;;
7160;SDS011;3622;53.576;9.978;2023-05-07T00:23:39;10.67;;;8.70;;
7160;SDS011;3622;53.576;9.978;2023-05-07T00:26:05;11.60;;;7.50;;
7160;SDS011;3622;53.576;9.978;2023-05-07T00:28:31;14.53;;;10.37;;
7160;SDS011;3622;53.576;9.978;2023-05-07T00:30:57;17.33;;;9.50;;
7160;SDS011;3622;53.576;9.978;2023-05-07T00:33:23;16.90;;;9.90;;
7160;SDS011;3622;53.576;9.978;2023-05-07T00:35:51;16.43;;;10.60;;
7160;SDS011;3622;53.576;9.978;2023-05-07T00:38:17;17.57;;;10.70;;
7160;SDS011;3622;53.576;9.978;2023-05-07T00:40:43;11.60;;;7.93;;
7160;SDS011;3622;53.576;9.978;2023-05-07T00:43:10;16.47;;;10.03;;
7160;SDS011;3622;53.576;9.978;2023-05-07T00:45:37;15.90;;;10.63;;
7160;SDS011;3622;53.576;9.978;2023-05-07T00:48:03;17.47;;;10.43;;
7160;SDS011;3622;53.576;9.978;2023-05-07T00:50:29;12.97;;;8.47;;
7160;SDS011;3622;53.576;9.978;2023-05-07T00:52:56;15.60;;;9.57;;
7160;SDS011;3622;53.576;9.978;2023-05-07T00:55:22;15.87;;;10.17;;
7160;SDS011;3622;53.576;9.978;2023-05-07T00:57:48;13.83;;;9.80;;
7160;SDS011;3622;53.576;9.978;2023-05-07T01:00:15;11.53;;;7.97;;
7160;SDS011;3622;53.576;9.978;2023-05-07T01:02:41;11.87;;;7.70;;
7160;SDS011;3622;53.576;9.978;2023-05-07T01:05:08;13.10;;;9.47;;
7160;SDS011;3622;53.576;9.978;2023-05-07T01:07:34;14.90;;;9.83;;
7160;SDS011;3622;53.576;9.978;2023-05-07T01:10:01;15.30;;;8.67;;
7160;SDS011;3622;53.576;9.978;2023-05-07T01:12:27;13.50;;;8.80;;
7160;SDS011;3622;53.576;9.978;2023-05-07T01:14:54;19.50;;;9.57;;
7160;SDS011;3622;53.576;9.978;2023-05-07T01:17:20;15.47;;;10.33;;
7160;SDS011;3622;53.576;9.978;2023-05-07T01:19:46;12.37;;;9.13;;
7160;SDS011;3622;53.576;9.978;2023-05-07T01:22:13;12.97;;;8.90;;
7160;SDS011;3622;53.576;9.978;2023-05-07T01:24:41;11.10;;;8.53;;
7160;SDS011;3622;53.576;9.978;2023-05-07T01:27:07;11.30;;;7.83;;
7160;SDS011;3622;53.576;9.978;2023-05-07T01:29:33;10.83;;;8.43;;
7160;SDS011;3622;53.576;9.978;2023-05-07T01:32:00;12.10;;;8.37;;
7160;SDS011;3622;53.576;9.978;2023-05-07T01:34:27;11.17;;;7.83;;
7160;SDS011;3622;53.576;9.978;2023-05-07T01:36:54;11.67;;;7.67;;
7160;SDS011;3622;53.576;9.978;2023-05-07T01:39:24;11.97;;;8.40;;
7160;SDS011;3622;53.576;9.978;2023-05-07T01:41:50;14.33;;;8.53;;
7160;SDS011;3622;53.576;9.978;2023-05-07T01:44:16;10.07;;;8.10;;
7160;SDS011;3622;53.576;9.978;2023-05-07T01:46:42;10.60;;;7.90;;
7160;SDS011;3622;53.576;9.978;2023-05-07T01:49:08;9.03;;;6.37;;
7160;SDS011;3622;53.576;9.978;2023-05-07T01:51:34;11.30;;;8.30;;
7160;SDS011;3622;53.576;9.978;2023-05-07T01:54:01;12.13;;;8.50;;
7160;SDS011;3622;53.576;9.978;2023-05-07T01:56:27;11.07;;;8.07;;
7160;SDS011;3622;53.576;9.978;2023-05-07T01:58:52;11.13;;;8.03;;
7160;SDS011;3622;53.576;9.978;2023-05-07T02:01:18;12.93;;;8.37;;
7160;SDS011;3622;53.576;9.978;2023-05-07T02:03:45;8.77;;;5.83;;
7160;SDS011;3622;53.576;9.978;2023-05-07T02:06:10;12.37;;;8.70;;
7160;SDS011;3622;53.576;9.978;2023-05-07T02:08:36;12.10;;;8.33;;
7160;SDS011;3622;53.576;9.978;2023-05-07T02:11:02;11.33;;;8.43;;
7160;SDS011;3622;53.576;9.978;2023-05-07T02:13:29;12.50;;;7.53;;
7160;SDS011;3622;53.576;9.978;2023-05-07T02:15:55;7.47;;;6.13;;
7160;SDS011;3622;53.576;9.978;2023-05-07T02:18:21;10.10;;;7.60;;
7160;SDS011;3622;53.576;9.978;2023-05-07T02:20:47;7.53;;;5.97;;
7160;SDS011;3622;53.576;9.978;2023-05-07T02:23:13;10.83;;;8.20;;
7160;SDS011;3622;53.576;9.978;2023-05-07T02:25:39;12.77;;;8.83;;
7160;SDS011;3622;53.576;9.978;2023-05-07T02:28:05;11.90;;;8.03;;
7160;SDS011;3622;53.576;9.978;2023-05-07T02:30:31;7.57;;;5.57;;
7160;SDS011;3622;53.576;9.978;2023-05-07T02:32:57;10.13;;;7.60;;
7160;SDS011;3622;53.576;9.978;2023-05-07T02:35:24;11.70;;;8.50;;
7160;SDS011;3622;53.576;9.978;2023-05-07T02:37:50;15.17;;;7.90;;
7160;SDS011;3622;53.576;9.978;2023-05-07T02:40:16;9.90;;;7.93;;
7160;SDS011;3622;53.576;9.978;2023-05-07T02:42:42;10.10;;;7.73;;
7160;SDS011;3622;53.576;9.978;2023-05-07T02:45:08;7.40;;;5.57;;
7160;SDS011;3622;53.576;9.978;2023-05-07T02:47:35;9.00;;;7.10;;
7160;SDS011;3622;53.576;9.978;2023-05-07T02:50:01;10.20;;;7.80;;
7160;SDS011;3622;53.576;9.978;2023-05-07T02:52:27;10.60;;;6.33;;
7160;SDS011;3622;53.576;9.978;2023-05-07T02:54:53;11.00;;;7.50;;
7160;SDS011;3622;53.576;9.978;2023-05-07T02:57:19;15.77;;;7.87;;
7160;SDS011;3622;53.576;9.978;2023-05-07T02:59:44;9.77;;;6.90;;
7160;SDS011;3622;53.576;9.978;2023-05-07T03:02:10;9.20;;;6.63;;
7160;SDS011;3622;53.576;9.978;2023-05-07T03:04:36;8.17;;;6.57;;
7160;SDS011;3622;53.576;9.978;2023-05-07T03:07:02;10.33;;;7.47;;
7160;SDS011;3622;53.576;9.978;2023-05-07T03:09:28;11.33;;;7.20;;
7160;SDS011;3622;53.576;9.978;2023-05-07T03:11:54;12.23;;;8.23;;
7160;SDS011;3622;53.576;9.978;2023-05-07T03:14:20;11.17;;;8.20;;
7160;SDS011;3622;53.576;9.978;2023-05-07T03:16:48;10.53;;;7.63;;
7160;SDS011;3622;53.576;9.978;2023-05-07T03:19:14;12.53;;;7.77;;
7160;SDS011;3622;53.576;9.978;2023-05-07T03:21:40;13.00;;;8.37;;
7160;SDS011;3622;53.576;9.978;2023-05-07T03:24:06;13.73;;;8.63;;
7160;SDS011;3622;53.576;9.978;2023-05-07T03:26:32;15.20;;;8.83;;
7160;SDS011;3622;53.576;9.978;2023-05-07T03:28:58;13.27;;;8.50;;
7160;SDS011;3622;53.576;9.978;2023-05-07T03:31:25;13.73;;;9.20;;
7160;SDS011;3622;53.576;9.978;2023-05-07T03:33:54;12.07;;;8.17;;
7160;SDS011;3622;53.576;9.978;2023-05-07T03:36:20;12.87;;;9.70;;
7160;SDS011;3622;53.576;9.978;2023-05-07T03:38:46;13.00;;;7.93;;
7160;SDS011;3622;53.576;9.978;2023-05-07T03:41:12;14.30;;;8.20;;
7160;SDS011;3622;53.576;9.978;2023-05-07T03:43:39;12.60;;;9.67;;
7160;SDS011;3622;53.576;9.978;2023-05-07T03:46:04;14.40;;;9.47;;
7160;SDS011;3622;53.576;9.978;2023-05-07T03:48:30;11.10;;;8.30;;
7160;SDS011;3622;53.576;9.978;2023-05-07T03:50:57;14.30;;;8.37;;
7160;SDS011;3622;53.576;9.978;2023-05-07T03:53:23;11.50;;;7.80;;
7160;SDS011;3622;53.576;9.978;2023-05-07T03:55:49;9.60;;;5.00;;
7160;SDS011;3622;53.576;9.978;2023-05-07T03:58:15;15.10;;;9.90;;
7160;SDS011;3622;53.576;9.978;2023-05-07T04:00:41;11.07;;;8.10;;
7160;SDS011;3622;53.576;9.978;2023-05-07T04:03:07;12.30;;;8.20;;
7160;SDS011;3622;53.576;9.978;2023-05-07T04:05:33;13.43;;;8.40;;
7160;SDS011;3622;53.576;9.978;2023-05-07T04:08:00;12.63;;;9.03;;
7160;SDS011;3622;53.576;9.978;2023-05-07T04:10:26;10.23;;;8.53;;
7160;SDS011;3622;53.576;9.978;2023-05-07T04:12:53;11.53;;;8.30;;
7160;SDS011;3622;53.576;9.978;2023-05-07T04:15:19;13.17;;;8.90;;
7160;SDS011;3622;53.576;9.978;2023-05-07T04:17:45;11.77;;;8.67;;
7160;SDS011;3622;53.576;9.978;2023-05-07T04:20:13;13.87;;;8.97;;
7160;SDS011;3622;53.576;9.978;2023-05-07T04:22:40;11.40;;;8.57;;
7160;SDS011;3622;53.576;9.978;2023-05-07T04:25:06;12.83;;;8.70;;
7160;SDS011;3622;53.576;9.978;2023-05-07T04:27:34;13.90;;;9.17;;
7160;SDS011;3622;53.576;9.978;2023-05-07T04:30:00;9.83;;;8.20;;
7160;SDS011;3622;53.576;9.978;2023-05-07T04:32:26;11.77;;;7.30;;
7160;SDS011;3622;53.576;9.978;2023-05-07T04:34:54;10.93;;;7.63;;
7160;SDS011;3622;53.576;9.978;2023-05-07T04:37:20;12.03;;;8.40;;
7160;SDS011;3622;53.576;9.978;2023-05-07T04:39:46;9.63;;;7.40;;
7160;SDS011;3622;53.576;9.978;2023-05-07T04:42:15;10.77;;;7.80;;
7160;SDS011;3622;53.576;9.978;2023-05-07T04:44:41;12.00;;;8.70;;
7160;SDS011;3622;53.576;9.978;2023-05-07T04:47:07;10.67;;;8.10;;
7160;SDS011;3622;53.576;9.978;2023-05-07T04:49:33;11.87;;;8.57;;
7160;SDS011;3622;53.576;9.978;2023-05-07T04:51:59;12.00;;;7.90;;
7160;SDS011;3622;53.576;9.978;2023-05-07T04:54:26;10.43;;;7.73;;
7160;SDS011;3622;53.576;9.978;2023-05-07T04:56:52;9.70;;;7.27;;
7160;SDS011;3622;53.576;9.978;2023-05-07T04:59:18;11.90;;;7.87;;
7160;SDS011;3622;53.576;9.978;2023-05-07T05:01:43;9.70;;;7.17;;
7160;SDS011;3622;53.576;9.978;2023-05-07T05:04:09;8.87;;;5.90;;
7160;SDS011;3622;53.576;9.978;2023-05-07T05:06:35;9.17;;;7.47;;
7160;SDS011;3622;53.576;9.978;2023-05-07T05:09:01;9.40;;;7.60;;
7160;SDS011;3622;53.576;9.978;2023-05-07T05:11:29;8.13;;;6.70;;
7160;SDS011;3622;53.576;9.978;2023-05-07T05:13:55;9.93;;;7.43;;
7160;SDS011;3622;53.576;9.978;2023-05-07T05:16:21;9.53;;;6.70;;
7160;SDS011;3622;53.576;9.978;2023-05-07T05:18:47;12.03;;;7.37;;
7160;SDS011;3622;53.576;9.978;2023-05-07T05:21:13;9.77;;;7.47;;
7160;SDS011;3622;53.576;9.978;2023-05-07T05:23:39;14.23;;;6.97;;
7160;SDS011;3622;53.576;9.978;2023-05-07T05:26:05;9.70;;;6.80;;
7160;SDS011;3622;53.576;9.978;2023-05-07T05:28:31;11.77;;;7.40;;
7160;SDS011;3622;53.576;9.978;2023-05-07T05:30:57;10.13;;;7.53;;
7160;SDS011;3622;53.576;9.978;2023-05-07T05:33:23;9.57;;;8.00;;
7160;SDS011;3622;53.576;9.978;2023-05-07T05:35:49;10.47;;;7.77;;
7160;SDS011;3622;53.576;9.978;2023-05-07T05:38:15;5.27;;;4.77;;
7160;SDS011;3622;53.576;9.978;2023-05-07T05:40:41;10.67;;;7.80;;
7160;SDS011;3622;53.576;9.978;2023-05-07T05:43:07;6.90;;;4.93;;
7160;SDS011;3622;53.576;9.978;2023-05-07T05:45:33;11.00;;;7.53;;
7160;SDS011;3622;53.576;9.978;2023-05-07T05:48:00;8.27;;;6.80;;
7160;SDS011;3622;53.576;9.978;2023-05-07T05:50:26;9.93;;;7.47;;
7160;SDS011;3622;53.576;9.978;2023-05-07T05:52:52;12.10;;;8.10;;
7160;SDS011;3622;53.576;9.978;2023-05-07T05:55:18;8.70;;;7.80;;
7160;SDS011;3622;53.576;9.978;2023-05-07T05:57:44;10.63;;;7.93;;
7160;SDS011;3622;53.576;9.978;2023-05-07T06:00:10;9.53;;;7.57;;
7160;SDS011;3622;53.576;9.978;2023-05-07T06:02:36;10.27;;;6.63;;
7160;SDS011;3622;53.576;9.978;2023-05-07T06:05:02;13.07;;;7.70;;
7160;SDS011;3622;53.576;9.978;2023-05-07T06:07:28;11.27;;;8.00;;
7160;SDS011;3622;53.576;9.978;2023-05-07T06:09:54;10.57;;;7.83;;
7160;SDS011;3622;53.576;9.978;2023-05-07T06:12:20;11.43;;;7.50;;
7160;SDS011;3622;53.576;9.978;2023-05-07T06:14:46;9.87;;;7.40;;
7160;SDS011;3622;53.576;9.978;2023-05-07T06:17:12;12.53;;;8.30;;
7160;SDS011;3622;53.576;9.978;2023-05-07T06:19:38;8.60;;;6.70;;
7160;SDS011;3622;53.576;9.978;2023-05-07T06:22:04;8.63;;;5.63;;
7160;SDS011;3622;53.576;9.978;2023-05-07T06:24:30;12.57;;;7.73;;
7160;SDS011;3622;53.576;9.978;2023-05-07T06:26:56;12.10;;;7.70;;
7160;SDS011;3622;53.576;9.978;2023-05-07T06:29:23;13.27;;;8.43;;
7160;SDS011;3622;53.576;9.978;2023-05-07T06:31:51;9.87;;;7.40;;
7160;SDS011;3622;53.576;9.978;2023-05-07T06:34:17;10.30;;;7.13;;
7160;SDS011;3622;53.576;9.978;2023-05-07T06:36:43;10.10;;;7.43;;
7160;SDS011;3622;53.576;9.978;2023-05-07T06:39:09;11.07;;;8.17;;
7160;SDS011;3622;53.576;9.978;2023-05-07T06:41:35;10.40;;;7.70;;
7160;SDS011;3622;53.576;9.978;2023-05-07T06:44:01;12.93;;;6.53;;
7160;SDS011;3622;53.576;9.978;2023-05-07T06:46:28;8.03;;;6.40;;
7160;SDS011;3622;53.576;9.978;2023-05-07T06:48:54;10.87;;;7.47;;
7160;SDS011;3622;53.576;9.978;2023-05-07T06:51:21;9.20;;;7.47;;
7160;SDS011;3622;53.576;9.978;2023-05-07T06:53:47;9.53;;;7.17;;
7160;SDS011;3622;53.576;9.978;2023-05-07T06:56:13;7.93;;;6.77;;
7160;SDS011;3622;53.576;9.978;2023-05-07T06:58:39;8.57;;;6.97;;
7160;SDS011;3622;53.576;9.978;2023-05-07T07:01:05;8.97;;;7.50;;
7160;SDS011;3622;53.576;9.978;2023-05-07T07:03:31;11.70;;;6.87;;
7160;SDS011;3622;53.576;9.978;2023-05-07T07:05:57;12.60;;;7.20;;
7160;SDS011;3622;53.576;9.978;2023-05-07T07:08:23;9.27;;;6.83;;
7160;SDS011;3622;53.576;9.978;2023-05-07T07:10:49;10.90;;;7.07;;
7160;SDS011;3622;53.576;9.978;2023-05-07T07:13:15;11.37;;;7.17;;
7160;SDS011;3622;53.576;9.978;2023-05-07T07:15:41;6.27;;;5.70;;
7160;SDS011;3622;53.576;9.978;2023-05-07T07:18:07;9.33;;;6.90;;
7160;SDS011;3622;53.576;9.978;2023-05-07T07:20:33;7.70;;;6.67;;
7160;SDS011;3622;53.576;9.978;2023-05-07T07:22:59;10.10;;;7.10;;
7160;SDS011;3622;53.576;9.978;2023-05-07T07:25:25;7.93;;;7.10;;
7160;SDS011;3622;53.576;9.978;2023-05-07T07:27:51;7.00;;;6.10;;
7160;SDS011;3622;53.576;9.978;2023-05-07T07:30:17;6.63;;;6.00;;
7160;SDS011;3622;53.576;9.978;2023-05-07T07:32:43;6.80;;;5.67;;
7160;SDS011;3622;53.576;9.978;2023-05-07T07:35:09;8.53;;;7.10;;
7160;SDS011;3622;53.576;9.978;2023-05-07T07:37:35;7.63;;;5.70;;
7160;SDS011;3622;53.576;9.978;2023-05-07T07:40:01;7.80;;;6.80;;
7160;SDS011;3622;53.576;9.978;2023-05-07T07:42:28;8.93;;;7.17;;
7160;SDS011;3622;53.576;9.978;2023-05-07T07:44:54;10.00;;;6.73;;
7160;SDS011;3622;53.576;9.978;2023-05-07T07:47:22;7.43;;;6.60;;
7160;SDS011;3622;53.576;9.978;2023-05-07T07:49:48;7.17;;;6.47;;
7160;SDS011;3622;53.576;9.978;2023-05-07T07:52:13;6.93;;;6.23;;
7160;SDS011;3622;53.576;9.978;2023-05-07T07:54:39;6.27;;;5.63;;
7160;SDS011;3622;53.576;9.978;2023-05-07T07:57:05;7.40;;;6.00;;
7160;SDS011;3622;53.576;9.978;2023-05-07T07:59:31;12.67;;;5.70;;
7160;SDS011;3622;53.576;9.978;2023-05-07T08:01:57;5.43;;;4.93;;
7160;SDS011;3622;53.576;9.978;2023-05-07T08:04:23;7.40;;;6.70;;
7160;SDS011;3622;53.576;9.978;2023-05-07T08:06:49;7.07;;;6.47;;
7160;SDS011;3622;53.576;9.978;2023-05-07T08:09:15;7.73;;;6.07;;
7160;SDS011;3622;53.576;9.978;2023-05-07T08:11:41;6.73;;;5.90;;
7160;SDS011;3622;53.576;9.978;2023-05-07T08:14:07;6.63;;;6.00;;
7160;SDS011;3622;53.576;9.978;2023-05-07T08:16:33;9.87;;;6.50;;
7160;SDS011;3622;53.576;9.978;2023-05-07T08:18:59;7.20;;;6.50;;
7160;SDS011;3622;53.576;9.978;2023-05-07T08:21:25;7.33;;;6.60;;
7160;SDS011;3622;53.576;9.978;2023-05-07T08:23:51;6.00;;;4.63;;
7160;SDS011;3622;53.576;9.978;2023-05-07T08:26:17;12.80;;;6.23;;
7160;SDS011;3622;53.576;9.978;2023-05-07T08:28:43;7.60;;;6.37;;
7160;SDS011;3622;53.576;9.978;2023-05-07T08:31:09;6.50;;;5.77;;
7160;SDS011;3622;53.576;9.978;2023-05-07T08:33:35;7.60;;;6.47;;
7160;SDS011;3622;53.576;9.978;2023-05-07T08:36:02;8.10;;;6.50;;
7160;SDS011;3622;53.576;9.978;2023-05-07T08:38:28;7.00;;;6.30;;
7160;SDS011;3622;53.576;9.978;2023-05-07T08:40:54;7.30;;;6.60;;
7160;SDS011;3622;53.576;9.978;2023-05-07T08:43:20;9.90;;;6.73;;
7160;SDS011;3622;53.576;9.978;2023-05-07T08:45:47;11.37;;;6.97;;
7160;SDS011;3622;53.576;9.978;2023-05-07T08:48:15;6.57;;;5.97;;
7160;SDS011;3622;53.576;9.978;2023-05-07T08:50:42;8.00;;;7.13;;
7160;SDS011;3622;53.576;9.978;2023-05-07T08:53:08;8.93;;;6.60;;
7160;SDS011;3622;53.576;9.978;2023-05-07T08:55:34;8.50;;;7.00;;
7160;SDS011;3622;53.576;9.978;2023-05-07T08:58:00;14.40;;;9.50;;
7160;SDS011;3622;53.576;9.978;2023-05-07T09:00:26;7.77;;;6.13;;
7160;SDS011;3622;53.576;9.978;2023-05-07T09:02:52;7.43;;;6.73;;
7160;SDS011;3622;53.576;9.978;2023-05-07T09:05:18;6.40;;;5.77;;
7160;SDS011;3622;53.576;9.978;2023-05-07T09:07:45;10.93;;;7.53;;
7160;SDS011;3622;53.576;9.978;2023-05-07T09:10:11;7.57;;;6.77;;
7160;SDS011;3622;53.576;9.978;2023-05-07T09:12:38;7.70;;;6.90;;
7160;SDS011;3622;53.576;9.978;2023-05-07T09:15:04;7.53;;;6.67;;
7160;SDS011;3622;53.576;9.978;2023-05-07T09:17:30;6.87;;;5.57;;
7160;SDS011;3622;53.576;9.978;2023-05-07T09:20:01;10.20;;;6.67;;
7160;SDS011;3622;53.576;9.978;2023-05-07T09:22:29;18.03;;;10.43;;
7160;SDS011;3622;53.576;9.978;2023-05-07T09:24:56;9.40;;;8.40;;
7160;SDS011;3622;53.576;9.978;2023-05-07T09:27:22;7.30;;;5.73;;
7160;SDS011;3622;53.576;9.978;2023-05-07T09:29:48;9.30;;;6.30;;
7160;SDS011;3622;53.576;9.978;2023-05-07T09:32:14;7.13;;;6.37;;
7160;SDS011;3622;53.576;9.978;2023-05-07T09:34:41;7.67;;;6.90;;
7160;SDS011;3622;53.576;9.978;2023-05-07T09:37:07;8.77;;;6.57;;
7160;SDS011;3622;53.576;9.978;2023-05-07T09:39:42;7.10;;;6.40;;
7160;SDS011;3622;53.576;9.978;2023-05-07T09:42:09;11.10;;;8.50;;
7160;SDS011;3622;53.576;9.978;2023-05-07T09:44:36;8.90;;;6.40;;
7160;SDS011;3622;53.576;9.978;2023-05-07T09:47:04;7.97;;;6.53;;
7160;SDS011;3622;53.576;9.978;2023-05-07T09:49:30;6.20;;;5.60;;
7160;SDS011;3622;53.576;9.978;2023-05-07T09:51:59;7.97;;;6.60;;
7160;SDS011;3622;53.576;9.978;2023-05-07T09:54:25;7.40;;;6.23;;
7160;SDS011;3622;53.576;9.978;2023-05-07T09:56:54;8.37;;;6.87;;
7160;SDS011;3622;53.576;9.978;2023-05-07T09:59:21;6.43;;;5.83;;
7160;SDS011;3622;53.576;9.978;2023-05-07T10:01:47;6.47;;;5.77;;
7160;SDS011;3622;53.576;9.978;2023-05-07T10:04:13;7.40;;;6.10;;
7160;SDS011;3622;53.576;9.978;2023-05-07T10:06:39;6.90;;;6.23;;
7160;SDS011;3622;53.576;9.978;2023-05-07T10:09:06;7.87;;;7.07;;
7160;SDS011;3622;53.576;9.978;2023-05-07T10:11:33;9.83;;;6.50;;
7160;SDS011;3622;53.576;9.978;2023-05-07T10:13:59;7.20;;;6.60;;
7160;SDS011;3622;53.576;9.978;2023-05-07T10:16:27;7.13;;;6.27;;
7160;SDS011;3622;53.576;9.978;2023-05-07T10:18:53;6.73;;;6.07;;
7160;SDS011;3622;53.576;9.978;2023-05-07T10:21:20;8.37;;;7.57;;
7160;SDS011;3622;53.576;9.978;2023-05-07T10:23:51;10.90;;;6.27;;
7160;SDS011;3622;53.576;9.978;2023-05-07T10:26:17;7.90;;;6.50;;
7160;SDS011;3622;53.576;9.978;2023-05-07T10:28:45;7.57;;;6.33;;
7160;SDS011;3622;53.576;9.978;2023-05-07T10:31:18;7.00;;;6.30;;
7160;SDS011;3622;53.576;9.978;2023-05-07T10:33:45;6.50;;;5.90;;
7160;SDS011;3622;53.576;9.978;2023-05-07T10:36:12;4.97;;;4.53;;
7160;SDS011;3622;53.576;9.978;2023-05-07T10:38:38;7.83;;;7.00;;
7160;SDS011;3622;53.576;9.978;2023-05-07T10:41:05;6.30;;;5.70;;
7160;SDS011;3622;53.576;9.978;2023-05-07T10:43:38;5.80;;;5.30;;
7160;SDS011;3622;53.576;9.978;2023-05-07T10:46:14;5.03;;;4.53;;
7160;SDS011;3622;53.576;9.978;2023-05-07T10:51:36;6.37;;;5.77;;
7160;SDS011;3622;53.576;9.978;2023-05-07T11:01:49;5.30;;;4.80;;
7160;SDS011;3622;53.576;9.978;2023-05-07T11:04:15;5.60;;;4.60;;
7160;SDS011;3622;53.576;9.978;2023-05-07T11:07:00;6.70;;;5.90;;
7160;SDS011;3622;53.576;9.978;2023-05-07T11:12:13;10.10;;;5.97;;
7160;SDS011;3622;53.576;9.978;2023-05-07T11:17:08;5.53;;;5.10;;
7160;SDS011;3622;53.576;9.978;2023-05-07T11:19:50;6.30;;;5.70;;
7160;SDS011;3622;53.576;9.978;2023-05-07T11:25:04;5.87;;;5.30;;
7160;SDS011;3622;53.576;9.978;2023-05-07T11:27:30;5.90;;;5.40;;
7160;SDS011;3622;53.576;9.978;2023-05-07T11:29:56;8.57;;;6.57;;
7160;SDS011;3622;53.576;9.978;2023-05-07T11:32:23;6.87;;;6.17;;
7160;SDS011;3622;53.576;9.978;2023-05-07T11:34:53;9.73;;;6.53;;
7160;SDS011;3622;53.576;9.978;2023-05-07T11:37:19;4.70;;;4.40;;
7160;SDS011;3622;53.576;9.978;2023-05-07T11:39:45;6.77;;;6.00;;
7160;SDS011;3622;53.576;9.978;2023-05-07T11:44:56;6.00;;;5.40;;
7160;SDS011;3622;53.576;9.978;2023-05-07T11:47:22;5.87;;;5.33;;
7160;SDS011;3622;53.576;9.978;2023-05-07T11:49:48;6.20;;;5.70;;
7160;SDS011;3622;53.576;9.978;2023-05-07T11:52:15;5.00;;;4.70;;
7160;SDS011;3622;53.576;9.978;2023-05-07T11:54:41;6.43;;;5.83;;
7160;SDS011;3622;53.576;9.978;2023-05-07T11:57:06;6.47;;;5.87;;
7160;SDS011;3622;53.576;9.978;2023-05-07T11:59:39;5.40;;;5.00;;
7160;SDS011;3622;53.576;9.978;2023-05-07T12:02:06;6.83;;;6.10;;
7160;SDS011;3622;53.576;9.978;2023-05-07T12:04:32;5.20;;;4.70;;
7160;SDS011;3622;53.576;9.978;2023-05-07T12:06:58;6.13;;;5.40;;
7160;SDS011;3622;53.576;9.978;2023-05-07T12:09:25;7.23;;;5.80;;
7160;SDS011;3622;53.576;9.978;2023-05-07T12:11:51;12.30;;;7.10;;
7160;SDS011;3622;53.576;9.978;2023-05-07T12:14:17;4.87;;;4.57;;
7160;SDS011;3622;53.576;9.978;2023-05-07T12:16:44;4.80;;;4.50;;
7160;SDS011;3622;53.576;9.978;2023-05-07T12:19:10;7.67;;;5.50;;
7160;SDS011;3622;53.576;9.978;2023-05-07T12:21:40;5.10;;;4.60;;
7160;SDS011;3622;53.576;9.978;2023-05-07T12:24:06;4.47;;;4.07;;
7160;SDS011;3622;53.576;9.978;2023-05-07T12:26:37;6.30;;;5.70;;
7160;SDS011;3622;53.576;9.978;2023-05-07T12:29:03;5.60;;;5.20;;
7160;SDS011;3622;53.576;9.978;2023-05-07T12:31:29;5.47;;;5.00;;
7160;SDS011;3622;53.576;9.978;2023-05-07T12:33:56;6.17;;;4.97;;
7160;SDS011;3622;53.576;9.978;2023-05-07T12:36:21;3.93;;;3.73;;
7160;SDS011;3622;53.576;9.978;2023-05-07T12:38:49;4.50;;;4.20;;
7160;SDS011;3622;53.576;9.978;2023-05-07T12:41:15;5.20;;;4.80;;
7160;SDS011;3622;53.576;9.978;2023-05-07T12:43:43;4.13;;;3.83;;
7160;SDS011;3622;53.576;9.978;2023-05-07T12:46:10;4.33;;;3.97;;
7160;SDS011;3622;53.576;9.978;2023-05-07T12:48:38;5.60;;;5.10;;
7160;SDS011;3622;53.576;9.978;2023-05-07T12:51:05;4.70;;;4.40;;
7160;SDS011;3622;53.576;9.978;2023-05-07T12:53:32;4.20;;;4.00;;
7160;SDS011;3622;53.576;9.978;2023-05-07T12:55:58;3.90;;;3.57;;
7160;SDS011;3622;53.576;9.978;2023-05-07T12:58:26;4.37;;;4.07;;
7160;SDS011;3622;53.576;9.978;2023-05-07T13:00:52;5.17;;;4.73;;
7160;SDS011;3622;53.576;9.978;2023-05-07T13:03:28;4.00;;;3.80;;
7160;SDS011;3622;53.576;9.978;2023-05-07T13:05:59;6.43;;;5.83;;
7160;SDS011;3622;53.576;9.978;2023-05-07T13:10:53;4.70;;;4.40;;
7160;SDS011;3622;53.576;9.978;2023-05-07T13:13:20;4.43;;;4.13;;
7160;SDS011;3622;53.576;9.978;2023-05-07T13:15:46;3.97;;;3.70;;
7160;SDS011;3622;53.576;9.978;2023-05-07T13:18:13;3.93;;;3.73;;
7160;SDS011;3622;53.576;9.978;2023-05-07T13:20:39;3.77;;;3.57;;
7160;SDS011;3622;53.576;9.978;2023-05-07T13:23:05;3.83;;;3.53;;
7160;SDS011;3622;53.576;9.978;2023-05-07T13:25:31;3.73;;;3.50;;
7160;SDS011;3622;53.576;9.978;2023-05-07T13:27:57;3.87;;;3.57;;
7160;SDS011;3622;53.576;9.978;2023-05-07T13:30:23;3.80;;;3.60;;
7160;SDS011;3622;53.576;9.978;2023-05-07T13:32:49;4.43;;;4.13;;
7160;SDS011;3622;53.576;9.978;2023-05-07T13:35:17;4.80;;;3.43;;
7160;SDS011;3622;53.576;9.978;2023-05-07T13:37:43;4.10;;;3.80;;
7160;SDS011;3622;53.576;9.978;2023-05-07T13:40:09;3.93;;;3.63;;
7160;SDS011;3622;53.576;9.978;2023-05-07T13:42:35;3.80;;;3.50;;
7160;SDS011;3622;53.576;9.978;2023-05-07T13:45:01;6.33;;;3.60;;
7160;SDS011;3622;53.576;9.978;2023-05-07T13:47:30;3.30;;;3.13;;
7160;SDS011;3622;53.576;9.978;2023-05-07T13:49:56;4.00;;;3.80;;
7160;SDS011;3622;53.576;9.978;2023-05-07T13:52:22;5.73;;;3.43;;
7160;SDS011;3622;53.576;9.978;2023-05-07T13:54:48;3.70;;;3.50;;
7160;SDS011;3622;53.576;9.978;2023-05-07T13:57:14;3.43;;;3.23;;
7160;SDS011;3622;53.576;9.978;2023-05-07T13:59:40;3.10;;;3.00;;
7160;SDS011;3622;53.576;9.978;2023-05-07T14:02:06;2.93;;;2.60;;
7160;SDS011;3622;53.576;9.978;2023-05-07T14:04:33;3.57;;;3.37;;
7160;SDS011;3622;53.576;9.978;2023-05-07T14:06:59;2.87;;;2.73;;
7160;SDS011;3622;53.576;9.978;2023-05-07T14:09:25;3.20;;;3.00;;
7160;SDS011;3622;53.576;9.978;2023-05-07T14:11:51;3.33;;;3.13;;
7160;SDS011;3622;53.576;9.978;2023-05-07T14:14:18;3.17;;;2.97;;
7160;SDS011;3622;53.576;9.978;2023-05-07T14:16:44;5.40;;;4.90;;
7160;SDS011;3622;53.576;9.978;2023-05-07T14:19:11;2.83;;;2.73;;
7160;SDS011;3622;53.576;9.978;2023-05-07T14:21:36;5.80;;;5.30;;
7160;SDS011;3622;53.576;9.978;2023-05-07T14:24:03;3.20;;;3.00;;
7160;SDS011;3622;53.576;9.978;2023-05-07T14:26:28;2.83;;;2.73;;
7160;SDS011;3622;53.576;9.978;2023-05-07T14:28:55;3.53;;;3.23;;
7160;SDS011;3622;53.576;9.978;2023-05-07T14:31:23;3.33;;;3.03;;
7160;SDS011;3622;53.576;9.978;2023-05-07T14:33:49;3.27;;;3.00;;
7160;SDS011;3622;53.576;9.978;2023-05-07T14:36:15;3.67;;;3.37;;
7160;SDS011;3622;53.576;9.978;2023-05-07T14:38:42;3.03;;;2.93;;
7160;SDS011;3622;53.576;9.978;2023-05-07T14:41:07;3.10;;;2.97;;
7160;SDS011;3622;53.576;9.978;2023-05-07T14:43:33;7.23;;;6.47;;
7160;SDS011;3622;53.576;9.978;2023-05-07T14:45:59;3.17;;;3.00;;
7160;SDS011;3622;53.576;9.978;2023-05-07T14:48:25;2.60;;;2.50;;
7160;SDS011;3622;53.576;9.978;2023-05-07T14:50:51;4.30;;;3.40;;
7160;SDS011;3622;53.576;9.978;2023-05-07T14:53:17;3.00;;;2.90;;
7160;SDS011;3622;53.576;9.978;2023-05-07T14:55:43;3.57;;;3.37;;
7160;SDS011;3622;53.576;9.978;2023-05-07T14:58:10;2.77;;;2.57;;
7160;SDS011;3622;53.576;9.978;2023-05-07T15:00:36;3.20;;;2.90;;
7160;SDS011;3622;53.576;9.978;2023-05-07T15:03:05;3.30;;;3.10;;
7160;SDS011;3622;53.576;9.978;2023-05-07T15:05:32;3.00;;;2.60;;
7160;SDS011;3622;53.576;9.978;2023-05-07T15:07:58;3.00;;;2.80;;
7160;SDS011;3622;53.576;9.978;2023-05-07T15:10:24;3.67;;;3.40;;
7160;SDS011;3622;53.576;9.978;2023-05-07T15:12:50;3.30;;;3.10;;
7160;SDS011;3622;53.576;9.978;2023-05-07T15:15:16;3.30;;;3.00;;
7160;SDS011;3622;53.576;9.978;2023-05-07T15:17:42;3.20;;;3.00;;
7160;SDS011;3622;53.576;9.978;2023-05-07T15:20:08;2.97;;;2.77;;
7160;SDS011;3622;53.576;9.978;2023-05-07T15:22:35;3.90;;;3.63;;
7160;SDS011;3622;53.576;9.978;2023-05-07T15:25:02;5.93;;;4.27;;
7160;SDS011;3622;53.576;9.978;2023-05-07T15:27:28;3.57;;;3.30;;
7160;SDS011;3622;53.576;9.978;2023-05-07T15:29:55;3.90;;;3.50;;